sensor_id;sensor_type;location;lat;lon;timestamp;P1;durP1;ratioP1;P2;durP2;ratioP2
38787;SDS011;24536;45.488;12.238;2023-11-21T00:01:59;17.13;;;14.90;;
38787;SDS011;24536;45.488;12.238;2023-11-21T00:04:24;19.65;;;15.38;;
38787;SDS011;24536;45.488;12.238;2023-11-21T00:06:54;17.65;;;14.65;;
38787;SDS011;24536;45.488;12.238;2023-11-21T00:09:19;22.33;;;18.02;;
38787;SDS011;24536;45.488;12.238;2023-11-21T00:11:45;17.95;;;13.88;;
38787;SDS011;24536;45.488;12.238;2023-11-21T00:14:11;18.05;;;13.85;;
38787;SDS011;24536;45.488;12.238;2023-11-21T00:16:36;17.80;;;13.23;;
38787;SDS011;24536;45.488;12.238;2023-11-21T00:19:02;23.88;;;16.58;;
38787;SDS011;24536;45.488;12.238;2023-11-21T00:21:28;19.95;;;15.20;;
38787;SDS011;24536;45.488;12.238;2023-11-21T00:23:53;19.38;;;13.77;;
38787;SDS011;24536;45.488;12.238;2023-11-21T00:26:19;21.08;;;16.10;;
38787;SDS011;24536;45.488;12.238;2023-11-21T00:28:45;19.38;;;15.63;;
38787;SDS011;24536;45.488;12.238;2023-11-21T00:31:10;22.17;;;17.98;;
38787;SDS011;24536;45.488;12.238;2023-11-21T00:33:36;23.20;;;17.60;;
38787;SDS011;24536;45.488;12.238;2023-11-21T00:36:02;19.80;;;15.90;;
38787;SDS011;24536;45.488;12.238;2023-11-21T00:38:28;20.00;;;15.48;;
38787;SDS011;24536;45.488;12.238;2023-11-21T00:40:53;19.23;;;16.42;;
38787;SDS011;24536;45.488;12.238;2023-11-21T00:43:23;25.10;;;16.30;;
38787;SDS011;24536;45.488;12.238;2023-11-21T00:45:49;19.50;;;15.38;;
38787;SDS011;24536;45.488;12.238;2023-11-21T00:48:16;21.23;;;17.08;;
38787;SDS011;24536;45.488;12.238;2023-11-21T00:50:43;20.15;;;13.63;;
38787;SDS011;24536;45.488;12.238;2023-11-21T00:53:09;22.67;;;18.20;;
38787;SDS011;24536;45.488;12.238;2023-11-21T00:55:35;23.65;;;15.15;;
38787;SDS011;24536;45.488;12.238;2023-11-21T00:58:01;19.27;;;16.33;;
38787;SDS011;24536;45.488;12.238;2023-11-21T01:00:29;26.85;;;20.67;;
38787;SDS011;24536;45.488;12.238;2023-11-21T01:02:54;21.75;;;16.10;;
38787;SDS011;24536;45.488;12.238;2023-11-21T01:05:20;22.10;;;16.48;;
38787;SDS011;24536;45.488;12.238;2023-11-21T01:07:46;26.95;;;17.45;;
38787;SDS011;24536;45.488;12.238;2023-11-21T01:10:12;20.80;;;16.90;;
38787;SDS011;24536;45.488;12.238;2023-11-21T01:12:38;24.70;;;18.48;;
38787;SDS011;24536;45.488;12.238;2023-11-21T01:15:05;22.45;;;17.40;;
38787;SDS011;24536;45.488;12.238;2023-11-21T01:17:34;24.77;;;19.30;;
38787;SDS011;24536;45.488;12.238;2023-11-21T01:20:00;23.40;;;18.30;;
38787;SDS011;24536;45.488;12.238;2023-11-21T01:22:27;23.88;;;17.90;;
38787;SDS011;24536;45.488;12.238;2023-11-21T01:24:53;22.30;;;17.90;;
38787;SDS011;24536;45.488;12.238;2023-11-21T01:27:19;22.10;;;15.65;;
38787;SDS011;24536;45.488;12.238;2023-11-21T01:29:45;21.10;;;16.27;;
38787;SDS011;24536;45.488;12.238;2023-11-21T01:32:11;25.27;;;18.90;;
38787;SDS011;24536;45.488;12.238;2023-11-21T01:34:36;22.83;;;18.50;;
38787;SDS011;24536;45.488;12.238;2023-11-21T01:37:02;23.38;;;17.13;;
38787;SDS011;24536;45.488;12.238;2023-11-21T01:39:30;23.13;;;18.45;;
38787;SDS011;24536;45.488;12.238;2023-11-21T01:41:56;20.85;;;16.40;;
38787;SDS011;24536;45.488;12.238;2023-11-21T01:44:26;20.42;;;15.90;;
38787;SDS011;24536;45.488;12.238;2023-11-21T01:46:52;27.13;;;19.38;;
38787;SDS011;24536;45.488;12.238;2023-11-21T01:49:19;23.00;;;19.63;;
38787;SDS011;24536;45.488;12.238;2023-11-21T01:51:46;26.33;;;20.92;;
38787;SDS011;24536;45.488;12.238;2023-11-21T01:54:15;23.40;;;19.40;;
38787;SDS011;24536;45.488;12.238;2023-11-21T01:56:42;24.80;;;19.55;;
38787;SDS011;24536;45.488;12.238;2023-11-21T01:59:10;24.55;;;18.88;;
38787;SDS011;24536;45.488;12.238;2023-11-21T02:01:39;21.33;;;17.60;;
38787;SDS011;24536;45.488;12.238;2023-11-21T02:04:06;24.95;;;19.08;;
38787;SDS011;24536;45.488;12.238;2023-11-21T02:06:33;28.02;;;22.15;;
38787;SDS011;24536;45.488;12.238;2023-11-21T02:08:59;22.80;;;18.88;;
38787;SDS011;24536;45.488;12.238;2023-11-21T02:11:25;23.67;;;18.80;;
38787;SDS011;24536;45.488;12.238;2023-11-21T02:13:53;23.27;;;18.63;;
38787;SDS011;24536;45.488;12.238;2023-11-21T02:16:19;25.95;;;21.15;;
38787;SDS011;24536;45.488;12.238;2023-11-21T02:18:46;23.95;;;18.42;;
38787;SDS011;24536;45.488;12.238;2023-11-21T02:21:13;19.77;;;15.82;;
38787;SDS011;24536;45.488;12.238;2023-11-21T02:23:39;26.50;;;20.75;;
38787;SDS011;24536;45.488;12.238;2023-11-21T02:26:09;19.47;;;16.33;;
38787;SDS011;24536;45.488;12.238;2023-11-21T02:28:35;23.10;;;16.80;;
38787;SDS011;24536;45.488;12.238;2023-11-21T02:31:02;22.10;;;16.77;;
38787;SDS011;24536;45.488;12.238;2023-11-21T02:33:29;22.08;;;17.73;;
38787;SDS011;24536;45.488;12.238;2023-11-21T02:35:59;22.23;;;17.85;;
38787;SDS011;24536;45.488;12.238;2023-11-21T02:38:25;18.45;;;15.35;;
38787;SDS011;24536;45.488;12.238;2023-11-21T02:40:51;16.30;;;14.10;;
38787;SDS011;24536;45.488;12.238;2023-11-21T02:43:16;18.92;;;15.00;;
38787;SDS011;24536;45.488;12.238;2023-11-21T02:45:42;19.75;;;15.60;;
38787;SDS011;24536;45.488;12.238;2023-11-21T02:48:08;19.48;;;15.90;;
38787;SDS011;24536;45.488;12.238;2023-11-21T02:50:34;18.20;;;14.75;;
38787;SDS011;24536;45.488;12.238;2023-11-21T02:53:00;18.63;;;14.32;;
38787;SDS011;24536;45.488;12.238;2023-11-21T02:55:27;21.38;;;15.68;;
38787;SDS011;24536;45.488;12.238;2023-11-21T02:57:53;23.95;;;15.65;;
38787;SDS011;24536;45.488;12.238;2023-11-21T03:00:21;17.33;;;14.25;;
38787;SDS011;24536;45.488;12.238;2023-11-21T03:02:49;16.63;;;14.57;;
38787;SDS011;24536;45.488;12.238;2023-11-21T03:05:15;16.25;;;14.35;;
38787;SDS011;24536;45.488;12.238;2023-11-21T03:07:40;15.43;;;12.57;;
38787;SDS011;24536;45.488;12.238;2023-11-21T03:10:07;17.10;;;14.43;;
38787;SDS011;24536;45.488;12.238;2023-11-21T03:12:39;19.38;;;15.27;;
38787;SDS011;24536;45.488;12.238;2023-11-21T03:15:05;18.55;;;14.10;;
38787;SDS011;24536;45.488;12.238;2023-11-21T03:17:31;17.35;;;13.68;;
38787;SDS011;24536;45.488;12.238;2023-11-21T03:19:59;18.23;;;13.77;;
38787;SDS011;24536;45.488;12.238;2023-11-21T03:22:25;17.38;;;13.98;;
38787;SDS011;24536;45.488;12.238;2023-11-21T03:24:51;15.38;;;13.65;;
38787;SDS011;24536;45.488;12.238;2023-11-21T03:27:17;14.70;;;12.65;;
38787;SDS011;24536;45.488;12.238;2023-11-21T03:29:44;16.58;;;12.80;;
38787;SDS011;24536;45.488;12.238;2023-11-21T03:32:11;16.23;;;13.27;;
38787;SDS011;24536;45.488;12.238;2023-11-21T03:34:52;16.67;;;12.93;;
38787;SDS011;24536;45.488;12.238;2023-11-21T03:37:21;14.35;;;12.38;;
38787;SDS011;24536;45.488;12.238;2023-11-21T03:39:47;14.30;;;12.13;;
38787;SDS011;24536;45.488;12.238;2023-11-21T03:42:13;16.23;;;13.25;;
38787;SDS011;24536;45.488;12.238;2023-11-21T03:44:38;15.93;;;13.05;;
38787;SDS011;24536;45.488;12.238;2023-11-21T03:47:04;16.30;;;13.07;;
38787;SDS011;24536;45.488;12.238;2023-11-21T03:49:30;19.67;;;12.95;;
38787;SDS011;24536;45.488;12.238;2023-11-21T03:51:56;13.63;;;11.27;;
38787;SDS011;24536;45.488;12.238;2023-11-21T03:54:22;13.98;;;11.50;;
38787;SDS011;24536;45.488;12.238;2023-11-21T03:56:47;13.85;;;11.50;;
38787;SDS011;24536;45.488;12.238;2023-11-21T03:59:14;13.57;;;12.02;;
38787;SDS011;24536;45.488;12.238;2023-11-21T04:01:39;15.82;;;13.20;;
38787;SDS011;24536;45.488;12.238;2023-11-21T04:04:05;14.93;;;13.02;;
38787;SDS011;24536;45.488;12.238;2023-11-21T04:06:30;15.88;;;13.50;;
38787;SDS011;24536;45.488;12.238;2023-11-21T04:08:57;15.80;;;12.98;;
38787;SDS011;24536;45.488;12.238;2023-11-21T04:11:23;15.63;;;12.48;;
38787;SDS011;24536;45.488;12.238;2023-11-21T04:13:49;15.30;;;12.07;;
38787;SDS011;24536;45.488;12.238;2023-11-21T04:16:15;15.48;;;12.27;;
38787;SDS011;24536;45.488;12.238;2023-11-21T04:18:40;16.48;;;13.02;;
38787;SDS011;24536;45.488;12.238;2023-11-21T04:21:06;11.60;;;10.25;;
38787;SDS011;24536;45.488;12.238;2023-11-21T04:23:33;16.35;;;10.88;;
38787;SDS011;24536;45.488;12.238;2023-11-21T04:25:59;14.45;;;11.10;;
38787;SDS011;24536;45.488;12.238;2023-11-21T04:28:27;16.63;;;11.93;;
38787;SDS011;24536;45.488;12.238;2023-11-21T04:30:52;13.73;;;12.23;;
38787;SDS011;24536;45.488;12.238;2023-11-21T04:33:18;16.42;;;13.32;;
38787;SDS011;24536;45.488;12.238;2023-11-21T04:35:44;14.88;;;12.18;;
38787;SDS011;24536;45.488;12.238;2023-11-21T04:38:10;14.48;;;11.95;;
38787;SDS011;24536;45.488;12.238;2023-11-21T04:40:35;15.38;;;11.95;;
38787;SDS011;24536;45.488;12.238;2023-11-21T04:43:01;16.13;;;12.52;;
38787;SDS011;24536;45.488;12.238;2023-11-21T04:45:29;14.90;;;12.38;;
38787;SDS011;24536;45.488;12.238;2023-11-21T04:47:55;15.27;;;12.80;;
38787;SDS011;24536;45.488;12.238;2023-11-21T04:50:21;15.55;;;12.23;;
38787;SDS011;24536;45.488;12.238;2023-11-21T04:52:47;15.30;;;12.02;;
38787;SDS011;24536;45.488;12.238;2023-11-21T04:55:12;15.60;;;12.85;;
38787;SDS011;24536;45.488;12.238;2023-11-21T04:57:38;14.73;;;12.48;;
38787;SDS011;24536;45.488;12.238;2023-11-21T05:00:08;14.35;;;12.23;;
38787;SDS011;24536;45.488;12.238;2023-11-21T05:02:34;14.93;;;12.13;;
38787;SDS011;24536;45.488;12.238;2023-11-21T05:05:00;14.57;;;11.55;;
38787;SDS011;24536;45.488;12.238;2023-11-21T05:07:27;14.30;;;11.90;;
38787;SDS011;24536;45.488;12.238;2023-11-21T05:09:55;13.63;;;11.52;;
38787;SDS011;24536;45.488;12.238;2023-11-21T05:12:24;12.90;;;11.07;;
38787;SDS011;24536;45.488;12.238;2023-11-21T05:14:50;14.68;;;11.43;;
38787;SDS011;24536;45.488;12.238;2023-11-21T05:17:16;16.33;;;11.68;;
38787;SDS011;24536;45.488;12.238;2023-11-21T05:19:42;16.10;;;13.15;;
38787;SDS011;24536;45.488;12.238;2023-11-21T05:22:10;18.73;;;14.25;;
38787;SDS011;24536;45.488;12.238;2023-11-21T05:24:37;15.95;;;13.50;;
38787;SDS011;24536;45.488;12.238;2023-11-21T05:27:04;16.50;;;12.43;;
38787;SDS011;24536;45.488;12.238;2023-11-21T05:29:30;15.43;;;12.98;;
38787;SDS011;24536;45.488;12.238;2023-11-21T05:31:56;16.10;;;12.32;;
38787;SDS011;24536;45.488;12.238;2023-11-21T05:34:21;14.50;;;11.45;;
38787;SDS011;24536;45.488;12.238;2023-11-21T05:36:49;13.25;;;10.85;;
38787;SDS011;24536;45.488;12.238;2023-11-21T05:39:15;15.70;;;12.23;;
38787;SDS011;24536;45.488;12.238;2023-11-21T05:41:42;16.27;;;12.32;;
38787;SDS011;24536;45.488;12.238;2023-11-21T05:44:08;15.45;;;12.40;;
38787;SDS011;24536;45.488;12.238;2023-11-21T05:46:34;14.50;;;12.18;;
38787;SDS011;24536;45.488;12.238;2023-11-21T05:49:00;13.82;;;11.60;;
38787;SDS011;24536;45.488;12.238;2023-11-21T05:51:25;14.73;;;12.52;;
38787;SDS011;24536;45.488;12.238;2023-11-21T05:53:51;15.43;;;12.27;;
38787;SDS011;24536;45.488;12.238;2023-11-21T05:56:17;14.32;;;12.07;;
38787;SDS011;24536;45.488;12.238;2023-11-21T05:58:43;14.50;;;10.98;;
38787;SDS011;24536;45.488;12.238;2023-11-21T06:01:08;15.32;;;12.75;;
38787;SDS011;24536;45.488;12.238;2023-11-21T06:03:37;18.52;;;13.80;;
38787;SDS011;24536;45.488;12.238;2023-11-21T06:06:03;14.40;;;12.38;;
38787;SDS011;24536;45.488;12.238;2023-11-21T06:08:32;16.15;;;12.90;;
38787;SDS011;24536;45.488;12.238;2023-11-21T06:11:03;15.18;;;12.82;;
38787;SDS011;24536;45.488;12.238;2023-11-21T06:13:29;15.63;;;12.60;;
38787;SDS011;24536;45.488;12.238;2023-11-21T06:15:55;13.13;;;11.73;;
38787;SDS011;24536;45.488;12.238;2023-11-21T06:18:21;15.43;;;12.60;;
38787;SDS011;24536;45.488;12.238;2023-11-21T06:20:47;17.58;;;13.55;;
38787;SDS011;24536;45.488;12.238;2023-11-21T06:23:12;15.98;;;13.45;;
38787;SDS011;24536;45.488;12.238;2023-11-21T06:25:39;13.35;;;11.95;;
38787;SDS011;24536;45.488;12.238;2023-11-21T06:28:05;14.73;;;12.52;;
38787;SDS011;24536;45.488;12.238;2023-11-21T06:30:31;17.70;;;13.35;;
38787;SDS011;24536;45.488;12.238;2023-11-21T06:32:57;13.60;;;12.10;;
38787;SDS011;24536;45.488;12.238;2023-11-21T06:35:22;15.75;;;13.18;;
38787;SDS011;24536;45.488;12.238;2023-11-21T06:37:48;15.32;;;12.68;;
38787;SDS011;24536;45.488;12.238;2023-11-21T06:40:14;16.40;;;13.25;;
38787;SDS011;24536;45.488;12.238;2023-11-21T06:42:40;16.77;;;14.00;;
38787;SDS011;24536;45.488;12.238;2023-11-21T06:45:07;17.45;;;13.43;;
38787;SDS011;24536;45.488;12.238;2023-11-21T06:47:35;18.23;;;13.20;;
38787;SDS011;24536;45.488;12.238;2023-11-21T06:50:03;16.80;;;13.40;;
38787;SDS011;24536;45.488;12.238;2023-11-21T06:52:29;18.75;;;13.32;;
38787;SDS011;24536;45.488;12.238;2023-11-21T06:54:55;17.95;;;12.75;;
38787;SDS011;24536;45.488;12.238;2023-11-21T06:57:22;21.50;;;13.65;;
38787;SDS011;24536;45.488;12.238;2023-11-21T06:59:48;17.42;;;12.60;;
38787;SDS011;24536;45.488;12.238;2023-11-21T07:02:15;17.02;;;13.93;;
38787;SDS011;24536;45.488;12.238;2023-11-21T07:04:43;17.23;;;14.00;;
38787;SDS011;24536;45.488;12.238;2023-11-21T07:07:11;16.50;;;13.20;;
38787;SDS011;24536;45.488;12.238;2023-11-21T07:09:40;17.25;;;12.60;;
38787;SDS011;24536;45.488;12.238;2023-11-21T07:12:09;15.02;;;13.10;;
38787;SDS011;24536;45.488;12.238;2023-11-21T07:14:36;16.67;;;13.15;;
38787;SDS011;24536;45.488;12.238;2023-11-21T07:17:04;16.98;;;12.90;;
38787;SDS011;24536;45.488;12.238;2023-11-21T07:19:30;13.75;;;11.13;;
38787;SDS011;24536;45.488;12.238;2023-11-21T07:22:01;20.48;;;13.38;;
38787;SDS011;24536;45.488;12.238;2023-11-21T07:24:27;17.60;;;13.45;;
38787;SDS011;24536;45.488;12.238;2023-11-21T07:26:53;19.90;;;13.60;;
38787;SDS011;24536;45.488;12.238;2023-11-21T07:29:23;15.20;;;12.30;;
38787;SDS011;24536;45.488;12.238;2023-11-21T07:31:50;14.30;;;12.70;;
38787;SDS011;24536;45.488;12.238;2023-11-21T07:34:17;15.68;;;12.60;;
38787;SDS011;24536;45.488;12.238;2023-11-21T07:36:42;15.73;;;12.93;;
38787;SDS011;24536;45.488;12.238;2023-11-21T07:39:08;15.80;;;12.30;;
38787;SDS011;24536;45.488;12.238;2023-11-21T07:41:34;14.25;;;11.57;;
38787;SDS011;24536;45.488;12.238;2023-11-21T07:43:59;14.40;;;10.70;;
38787;SDS011;24536;45.488;12.238;2023-11-21T07:46:26;13.52;;;11.88;;
38787;SDS011;24536;45.488;12.238;2023-11-21T07:48:52;14.45;;;11.80;;
38787;SDS011;24536;45.488;12.238;2023-11-21T07:51:18;13.40;;;11.98;;
38787;SDS011;24536;45.488;12.238;2023-11-21T07:53:44;14.02;;;10.98;;
38787;SDS011;24536;45.488;12.238;2023-11-21T07:56:10;15.38;;;12.10;;
38787;SDS011;24536;45.488;12.238;2023-11-21T07:58:36;14.65;;;12.32;;
38787;SDS011;24536;45.488;12.238;2023-11-21T08:01:04;18.33;;;14.35;;
38787;SDS011;24536;45.488;12.238;2023-11-21T08:03:30;19.10;;;13.90;;
38787;SDS011;24536;45.488;12.238;2023-11-21T08:05:56;20.02;;;13.77;;
38787;SDS011;24536;45.488;12.238;2023-11-21T08:08:23;18.90;;;14.15;;
38787;SDS011;24536;45.488;12.238;2023-11-21T08:10:49;18.60;;;14.57;;
38787;SDS011;24536;45.488;12.238;2023-11-21T08:13:24;14.98;;;11.88;;
38787;SDS011;24536;45.488;12.238;2023-11-21T08:15:54;11.90;;;9.82;;
38787;SDS011;24536;45.488;12.238;2023-11-21T08:18:21;11.98;;;10.10;;
38787;SDS011;24536;45.488;12.238;2023-11-21T08:20:47;14.50;;;11.35;;
38787;SDS011;24536;45.488;12.238;2023-11-21T08:23:16;15.25;;;12.10;;
38787;SDS011;24536;45.488;12.238;2023-11-21T08:25:42;14.80;;;10.80;;
38787;SDS011;24536;45.488;12.238;2023-11-21T08:28:08;14.95;;;12.40;;
38787;SDS011;24536;45.488;12.238;2023-11-21T08:30:35;12.60;;;10.13;;
38787;SDS011;24536;45.488;12.238;2023-11-21T08:33:00;20.75;;;15.52;;
38787;SDS011;24536;45.488;12.238;2023-11-21T08:35:28;14.25;;;11.30;;
38787;SDS011;24536;45.488;12.238;2023-11-21T08:37:54;14.55;;;11.27;;
38787;SDS011;24536;45.488;12.238;2023-11-21T08:40:20;18.35;;;13.63;;
38787;SDS011;24536;45.488;12.238;2023-11-21T08:42:46;13.32;;;11.32;;
38787;SDS011;24536;45.488;12.238;2023-11-21T08:45:17;14.77;;;12.48;;
38787;SDS011;24536;45.488;12.238;2023-11-21T08:47:44;15.38;;;11.65;;
38787;SDS011;24536;45.488;12.238;2023-11-21T08:50:10;12.73;;;11.25;;
38787;SDS011;24536;45.488;12.238;2023-11-21T08:52:39;15.25;;;10.82;;
38787;SDS011;24536;45.488;12.238;2023-11-21T08:55:06;15.27;;;11.25;;
38787;SDS011;24536;45.488;12.238;2023-11-21T08:57:37;13.80;;;11.80;;
38787;SDS011;24536;45.488;12.238;2023-11-21T09:00:04;14.88;;;11.88;;
38787;SDS011;24536;45.488;12.238;2023-11-21T09:02:35;16.75;;;12.23;;
38787;SDS011;24536;45.488;12.238;2023-11-21T09:05:02;11.77;;;9.27;;
38787;SDS011;24536;45.488;12.238;2023-11-21T09:07:29;19.50;;;15.30;;
38787;SDS011;24536;45.488;12.238;2023-11-21T09:09:55;12.90;;;10.95;;
38787;SDS011;24536;45.488;12.238;2023-11-21T09:12:20;10.02;;;8.80;;
38787;SDS011;24536;45.488;12.238;2023-11-21T09:14:46;10.90;;;9.45;;
38787;SDS011;24536;45.488;12.238;2023-11-21T09:17:12;11.20;;;9.45;;
38787;SDS011;24536;45.488;12.238;2023-11-21T09:19:39;13.38;;;11.20;;
38787;SDS011;24536;45.488;12.238;2023-11-21T09:22:06;11.13;;;8.70;;
38787;SDS011;24536;45.488;12.238;2023-11-21T09:24:32;10.73;;;8.90;;
38787;SDS011;24536;45.488;12.238;2023-11-21T09:26:59;11.80;;;9.95;;
38787;SDS011;24536;45.488;12.238;2023-11-21T09:29:27;13.15;;;9.00;;
38787;SDS011;24536;45.488;12.238;2023-11-21T09:31:54;13.02;;;9.48;;
38787;SDS011;24536;45.488;12.238;2023-11-21T09:34:20;12.35;;;10.43;;
38787;SDS011;24536;45.488;12.238;2023-11-21T09:36:46;11.98;;;9.57;;
38787;SDS011;24536;45.488;12.238;2023-11-21T09:39:13;10.40;;;9.23;;
38787;SDS011;24536;45.488;12.238;2023-11-21T09:41:43;12.45;;;9.43;;
38787;SDS011;24536;45.488;12.238;2023-11-21T09:44:14;10.73;;;9.15;;
38787;SDS011;24536;45.488;12.238;2023-11-21T09:47:00;13.02;;;9.65;;
38787;SDS011;24536;45.488;12.238;2023-11-21T09:49:27;11.80;;;9.55;;
38787;SDS011;24536;45.488;12.238;2023-11-21T09:51:57;11.52;;;10.10;;
38787;SDS011;24536;45.488;12.238;2023-11-21T09:54:28;15.32;;;10.82;;
38787;SDS011;24536;45.488;12.238;2023-11-21T09:56:54;15.95;;;10.60;;
38787;SDS011;24536;45.488;12.238;2023-11-21T09:59:20;14.80;;;11.27;;
38787;SDS011;24536;45.488;12.238;2023-11-21T10:01:47;14.13;;;10.52;;
38787;SDS011;24536;45.488;12.238;2023-11-21T10:04:13;14.70;;;11.52;;
38787;SDS011;24536;45.488;12.238;2023-11-21T10:06:39;12.00;;;9.85;;
38787;SDS011;24536;45.488;12.238;2023-11-21T10:09:11;13.82;;;9.50;;
38787;SDS011;24536;45.488;12.238;2023-11-21T10:11:42;12.55;;;9.02;;
38787;SDS011;24536;45.488;12.238;2023-11-21T10:14:11;11.20;;;9.27;;
38787;SDS011;24536;45.488;12.238;2023-11-21T10:19:05;11.68;;;9.63;;
38787;SDS011;24536;45.488;12.238;2023-11-21T10:21:33;11.80;;;8.52;;
38787;SDS011;24536;45.488;12.238;2023-11-21T10:23:59;14.88;;;8.88;;
38787;SDS011;24536;45.488;12.238;2023-11-21T10:26:25;10.52;;;8.18;;
38787;SDS011;24536;45.488;12.238;2023-11-21T10:28:59;11.20;;;9.30;;
38787;SDS011;24536;45.488;12.238;2023-11-21T10:31:29;12.82;;;9.63;;
38787;SDS011;24536;45.488;12.238;2023-11-21T10:34:14;11.52;;;8.60;;
38787;SDS011;24536;45.488;12.238;2023-11-21T10:36:41;9.80;;;8.73;;
38787;SDS011;24536;45.488;12.238;2023-11-21T10:39:07;10.77;;;8.68;;
38787;SDS011;24536;45.488;12.238;2023-11-21T10:41:34;13.10;;;8.40;;
38787;SDS011;24536;45.488;12.238;2023-11-21T10:44:01;15.07;;;9.13;;
38787;SDS011;24536;45.488;12.238;2023-11-21T10:46:32;12.55;;;7.72;;
38787;SDS011;24536;45.488;12.238;2023-11-21T10:48:59;13.85;;;9.50;;
38787;SDS011;24536;45.488;12.238;2023-11-21T10:51:25;12.10;;;8.45;;
38787;SDS011;24536;45.488;12.238;2023-11-21T10:53:54;7.97;;;6.35;;
38787;SDS011;24536;45.488;12.238;2023-11-21T10:56:19;9.95;;;4.30;;
38787;SDS011;24536;45.488;12.238;2023-11-21T10:58:49;5.22;;;3.47;;
38787;SDS011;24536;45.488;12.238;2023-11-21T11:01:18;2.00;;;1.70;;
38787;SDS011;24536;45.488;12.238;2023-11-21T11:03:49;2.30;;;1.40;;
38787;SDS011;24536;45.488;12.238;2023-11-21T11:06:19;2.05;;;1.15;;
38787;SDS011;24536;45.488;12.238;2023-11-21T11:08:46;2.00;;;1.10;;
38787;SDS011;24536;45.488;12.238;2023-11-21T11:11:13;0.85;;;0.75;;
38787;SDS011;24536;45.488;12.238;2023-11-21T11:13:39;2.08;;;0.95;;
38787;SDS011;24536;45.488;12.238;2023-11-21T11:16:09;1.80;;;1.00;;
38787;SDS011;24536;45.488;12.238;2023-11-21T11:18:37;1.00;;;0.70;;
38787;SDS011;24536;45.488;12.238;2023-11-21T11:34:50;2.45;;;0.80;;
38787;SDS011;24536;45.488;12.238;2023-11-21T11:37:25;1.35;;;0.55;;
38787;SDS011;24536;45.488;12.238;2023-11-21T11:39:52;0.63;;;0.50;;
38787;SDS011;24536;45.488;12.238;2023-11-21T11:42:19;1.10;;;0.70;;
38787;SDS011;24536;45.488;12.238;2023-11-21T11:44:48;0.63;;;0.63;;
38787;SDS011;24536;45.488;12.238;2023-11-21T11:52:48;1.92;;;1.00;;
38787;SDS011;24536;45.488;12.238;2023-11-21T11:55:20;0.73;;;0.50;;
38787;SDS011;24536;45.488;12.238;2023-11-21T11:57:47;1.38;;;0.77;;
38787;SDS011;24536;45.488;12.238;2023-11-21T12:00:20;0.95;;;0.60;;
38787;SDS011;24536;45.488;12.238;2023-11-21T12:02:55;1.38;;;0.73;;
38787;SDS011;24536;45.488;12.238;2023-11-21T12:05:22;0.80;;;0.68;;
38787;SDS011;24536;45.488;12.238;2023-11-21T12:12:56;1.30;;;0.68;;
38787;SDS011;24536;45.488;12.238;2023-11-21T12:15:24;3.90;;;0.70;;
38787;SDS011;24536;45.488;12.238;2023-11-21T12:17:52;1.83;;;0.82;;
38787;SDS011;24536;45.488;12.238;2023-11-21T12:20:19;1.95;;;1.00;;
38787;SDS011;24536;45.488;12.238;2023-11-21T12:22:50;1.38;;;0.93;;
38787;SDS011;24536;45.488;12.238;2023-11-21T12:27:47;1.05;;;0.70;;
38787;SDS011;24536;45.488;12.238;2023-11-21T12:30:17;0.85;;;0.65;;
38787;SDS011;24536;45.488;12.238;2023-11-21T12:32:51;11.60;;;0.77;;
38787;SDS011;24536;45.488;12.238;2023-11-21T12:35:21;0.73;;;0.50;;
38787;SDS011;24536;45.488;12.238;2023-11-21T12:37:50;2.33;;;0.47;;
38787;SDS011;24536;45.488;12.238;2023-11-21T12:40:17;0.95;;;0.57;;
38787;SDS011;24536;45.488;12.238;2023-11-21T12:42:46;1.00;;;0.90;;
38787;SDS011;24536;45.488;12.238;2023-11-21T12:47:43;0.98;;;0.82;;
38787;SDS011;24536;45.488;12.238;2023-11-21T12:50:10;1.90;;;0.60;;
38787;SDS011;24536;45.488;12.238;2023-11-21T12:52:45;2.95;;;0.90;;
38787;SDS011;24536;45.488;12.238;2023-11-21T12:55:18;2.08;;;0.70;;
38787;SDS011;24536;45.488;12.238;2023-11-21T12:57:48;0.85;;;0.60;;
38787;SDS011;24536;45.488;12.238;2023-11-21T13:00:19;2.05;;;0.68;;
38787;SDS011;24536;45.488;12.238;2023-11-21T13:02:55;1.60;;;0.70;;
38787;SDS011;24536;45.488;12.238;2023-11-21T13:05:29;4.22;;;0.60;;
38787;SDS011;24536;45.488;12.238;2023-11-21T13:08:04;0.80;;;0.60;;
38787;SDS011;24536;45.488;12.238;2023-11-21T13:10:35;1.25;;;0.55;;
38787;SDS011;24536;45.488;12.238;2023-11-21T13:13:02;1.10;;;0.60;;
38787;SDS011;24536;45.488;12.238;2023-11-21T13:15:46;2.22;;;0.60;;
38787;SDS011;24536;45.488;12.238;2023-11-21T13:18:26;0.70;;;0.60;;
38787;SDS011;24536;45.488;12.238;2023-11-21T13:20:54;0.90;;;0.80;;
38787;SDS011;24536;45.488;12.238;2023-11-21T13:23:24;1.65;;;1.00;;
38787;SDS011;24536;45.488;12.238;2023-11-21T13:25:52;1.00;;;0.57;;
38787;SDS011;24536;45.488;12.238;2023-11-21T13:28:19;0.80;;;0.80;;
38787;SDS011;24536;45.488;12.238;2023-11-21T13:30:46;1.20;;;0.73;;
38787;SDS011;24536;45.488;12.238;2023-11-21T13:33:13;0.98;;;0.63;;
38787;SDS011;24536;45.488;12.238;2023-11-21T13:35:46;2.65;;;0.65;;
38787;SDS011;24536;45.488;12.238;2023-11-21T13:38:16;0.63;;;0.60;;
38787;SDS011;24536;45.488;12.238;2023-11-21T13:40:46;3.38;;;1.45;;
38787;SDS011;24536;45.488;12.238;2023-11-21T13:43:19;1.42;;;1.10;;
38787;SDS011;24536;45.488;12.238;2023-11-21T13:45:50;3.10;;;0.80;;
38787;SDS011;24536;45.488;12.238;2023-11-21T13:48:26;2.08;;;0.73;;
38787;SDS011;24536;45.488;12.238;2023-11-21T13:51:16;1.30;;;0.83;;
38787;SDS011;24536;45.488;12.238;2023-11-21T13:53:46;1.20;;;0.88;;
38787;SDS011;24536;45.488;12.238;2023-11-21T13:56:17;1.40;;;0.82;;
38787;SDS011;24536;45.488;12.238;2023-11-21T13:58:48;1.58;;;1.00;;
38787;SDS011;24536;45.488;12.238;2023-11-21T14:01:19;1.15;;;0.80;;
38787;SDS011;24536;45.488;12.238;2023-11-21T14:03:49;1.58;;;0.75;;
38787;SDS011;24536;45.488;12.238;2023-11-21T14:06:21;3.35;;;1.40;;
38787;SDS011;24536;45.488;12.238;2023-11-21T14:08:52;0.85;;;0.50;;
38787;SDS011;24536;45.488;12.238;2023-11-21T14:11:19;2.13;;;1.08;;
38787;SDS011;24536;45.488;12.238;2023-11-21T14:13:47;2.72;;;0.70;;
38787;SDS011;24536;45.488;12.238;2023-11-21T14:16:13;0.80;;;0.50;;
38787;SDS011;24536;45.488;12.238;2023-11-21T14:18:42;1.10;;;0.80;;
38787;SDS011;24536;45.488;12.238;2023-11-21T14:21:19;1.27;;;0.75;;
38787;SDS011;24536;45.488;12.238;2023-11-21T14:23:44;1.30;;;0.60;;
38787;SDS011;24536;45.488;12.238;2023-11-21T14:26:11;2.22;;;0.50;;
38787;SDS011;24536;45.488;12.238;2023-11-21T14:28:40;1.33;;;0.60;;
38787;SDS011;24536;45.488;12.238;2023-11-21T14:31:09;1.27;;;0.68;;
38787;SDS011;24536;45.488;12.238;2023-11-21T14:33:40;0.98;;;0.77;;
38787;SDS011;24536;45.488;12.238;2023-11-21T14:36:06;0.95;;;0.75;;
38787;SDS011;24536;45.488;12.238;2023-11-21T14:38:35;1.02;;;0.73;;
38787;SDS011;24536;45.488;12.238;2023-11-21T14:41:02;2.25;;;0.73;;
38787;SDS011;24536;45.488;12.238;2023-11-21T14:43:29;2.80;;;0.77;;
38787;SDS011;24536;45.488;12.238;2023-11-21T14:45:59;0.93;;;0.50;;
38787;SDS011;24536;45.488;12.238;2023-11-21T14:48:24;1.98;;;0.80;;
38787;SDS011;24536;45.488;12.238;2023-11-21T14:51:12;2.42;;;0.55;;